This is the latest recevied weather packets stored in our database for station/object KS4XQ. If no packets are shown the sender has not sent any weather packets the latest 10 day(s).
| Time | Temp. | Humidity | Pressure | Rain* | Wind** | Luminosity | Snow |
|---|---|---|---|---|---|---|---|
| 1777659003 | 18.89° C | 54% | 1014.2 hPa | 0 mm | - | - | - |
| 1777658404 | 18.89° C | 53% | 1014.2 hPa | 0 mm | - | - | - |
| 1777657801 | 18.33° C | 54% | 1014.2 hPa | 0 mm | - | - | - |
| 1777649402 | 15.56° C | 58% | 1015.6 hPa | 0 mm | - | - | - |
| 1777648502 | 15.56° C | 59% | 1015.5 hPa | 0 mm | - | - | - |
| 1777647607 | 15.56° C | 57% | 1015.4 hPa | 0 mm | - | - | - |
| 1777643700 | 13.33° C | 67% | 1015.1 hPa | 0 mm | - | - | - |
| 1777641901 | 12.78° C | 66% | 1015.2 hPa | 0 mm | - | - | - |
| 1777641603 | 12.78° C | 65% | 1015 hPa | 0 mm | - | - | - |
| 1777641303 | 12.78° C | 65% | 1014.9 hPa | 0 mm | - | - | - |
| 1777637703 | 12.22° C | 66% | 1014.3 hPa | 0 mm | - | - | - |
| 1777633203 | 12.22° C | 64% | 1013.8 hPa | 0 mm | - | - | - |
| 1777629302 | 13.33° C | 62% | 1013.4 hPa | 0 mm | - | - | - |
| 1777625700 | 13.89° C | 60% | 1012.8 hPa | 0 mm | - | - | - |
| 1777624200 | 13.89° C | 60% | 1012.4 hPa | 0 mm | - | - | - |
| 1777623000 | 13.89° C | 64% | 1012.7 hPa | 0 mm | - | - | - |
| 1777621802 | 14.44° C | 65% | 1012.7 hPa | 0 mm | - | - | - |
| 1777620001 | 14.44° C | 59% | 1012.4 hPa | 0 mm | - | - | - |
| 1777619700 | 14.44° C | 56% | 1012.5 hPa | 0 mm | - | - | - |
| 1777618802 | 14.44° C | 57% | 1012.1 hPa | 0 mm | - | - | - |
| 1777617901 | 14.44° C | 56% | 1012.4 hPa | 0 mm | - | - | - |
| 1777617301 | 14.44° C | 60% | 1012.4 hPa | 0 mm | - | - | - |
| 1777615502 | 14.44° C | 57% | 1012.7 hPa | 0 mm | - | - | - |
| 1777614602 | 14.44° C | 60% | 1012.7 hPa | 0 mm | - | - | - |
| 1777614000 | 14.44° C | 58% | 1012.7 hPa | 0 mm | - | - | - |
* Rain latest hour (hover to see other rain measurements)
** Current wind speed in m/s (hover to see current wind gust speed)